createdAt,value
2022-11-26T00:01:24.957Z,101289.06
2022-11-26T00:04:27.680Z,101292.66
2022-11-26T00:07:31.050Z,101282.59
2022-11-26T00:10:36.064Z,101293.69
2022-11-26T00:13:38.535Z,101293.56
2022-11-26T00:16:41.641Z,101291.09
2022-11-26T00:19:45.982Z,101292.59
2022-11-26T00:22:58.485Z,101297.66
2022-11-26T00:26:03.882Z,101298.44
2022-11-26T00:29:10.334Z,101301.88
2022-11-26T00:32:26.364Z,101312.28
2022-11-26T00:35:28.783Z,101318.84
2022-11-26T00:38:31.709Z,101315.97
2022-11-26T00:41:38.271Z,101319.56
2022-11-26T00:44:40.785Z,101312.84
2022-11-26T00:47:43.912Z,101313.25
2022-11-26T00:50:49.838Z,101311.69
2022-11-26T00:54:00.166Z,101318.13
2022-11-26T00:57:02.833Z,101312.38
2022-11-26T01:00:17.488Z,101321.97
2022-11-26T01:03:20.453Z,101330.63
2022-11-26T01:06:37.305Z,101333.84
2022-11-26T01:09:41.901Z,101326.72
2022-11-26T01:12:44.905Z,101327.38
2022-11-26T01:15:47.433Z,101327.06
2022-11-26T01:18:51.799Z,101327.16
2022-11-26T01:21:54.719Z,101333.94
2022-11-26T01:24:57.467Z,101345.72
2022-11-26T01:27:59.863Z,101337.44
2022-11-26T01:31:02.273Z,101335.47
2022-11-26T01:34:04.717Z,101335.59
2022-11-26T01:37:14.261Z,101337.94
2022-11-26T01:40:26.053Z,101349.88
2022-11-26T01:43:41.257Z,101347.41
2022-11-26T01:46:44.180Z,101342.91
2022-11-26T01:50:39.506Z,101349.09
2022-11-26T01:53:45.955Z,101352.66
2022-11-26T01:56:52.758Z,101352.69
2022-11-26T02:00:01.273Z,101346.59
2022-11-26T02:03:04.987Z,101346.44
2022-11-26T02:06:15.903Z,101347.41
2022-11-26T02:09:22.767Z,101356.69
2022-11-26T02:12:25.531Z,101351.63
2022-11-26T02:15:34.219Z,101361.19
2022-11-26T02:18:42.534Z,101357.75
2022-11-26T02:21:56.289Z,101349.31
2022-11-26T02:25:10.844Z,101361.19
2022-11-26T02:28:55.468Z,101370.81
2022-11-26T02:32:08.820Z,101372.53
2022-11-26T02:35:40.871Z,101368.81
2022-11-26T02:38:44.291Z,101367.13
2022-11-26T02:41:53.474Z,101380.16
2022-11-26T02:44:59.517Z,101373.84
2022-11-26T02:48:04.769Z,101378.06
2022-11-26T02:51:14.771Z,101384.72
2022-11-26T02:54:20.162Z,101377.97
2022-11-26T02:57:26.552Z,101379.69
2022-11-26T03:00:30.888Z,101377.13
2022-11-26T03:03:38.143Z,101374.88
2022-11-26T03:06:41.407Z,101387.63
2022-11-26T03:09:54.785Z,101379.69
2022-11-26T03:12:57.675Z,101381.44
2022-11-26T03:16:00.177Z,101382.00
2022-11-26T03:19:02.696Z,101389.16
2022-11-26T03:22:05.479Z,101393.28
2022-11-26T03:25:08.914Z,101400.44
2022-11-26T03:28:11.559Z,101391.38
2022-11-26T03:31:14.109Z,101386.28
2022-11-26T03:34:16.634Z,101392.09
2022-11-26T03:37:19.395Z,101398.03
2022-11-26T03:40:22.271Z,101400.41
2022-11-26T03:43:25.078Z,101399.75
2022-11-26T03:46:27.517Z,101396.44
2022-11-26T03:49:30.064Z,101394.47
2022-11-26T03:52:32.605Z,101394.47
2022-11-26T03:55:35.303Z,101392.94
2022-11-26T03:58:38.555Z,101408.63
2022-11-26T04:01:41.079Z,101416.47
2022-11-26T04:04:44.201Z,101417.38
2022-11-26T04:07:46.775Z,101418.97
2022-11-26T04:10:49.202Z,101419.06
2022-11-26T04:13:51.668Z,101415.75
2022-11-26T04:16:54.334Z,101419.28
2022-11-26T04:19:56.962Z,101423.69
2022-11-26T04:22:59.381Z,101419.34
2022-11-26T04:26:02.454Z,101428.75
2022-11-26T04:29:05.220Z,101426.88
2022-11-26T04:32:07.640Z,101436.97
2022-11-26T04:35:10.207Z,101430.28
2022-11-26T04:38:12.733Z,101426.97
2022-11-26T04:41:15.212Z,101422.75
2022-11-26T04:44:17.628Z,101425.53
2022-11-26T04:47:20.071Z,101425.63
2022-11-26T04:50:24.480Z,101428.81
2022-11-26T04:53:26.980Z,101428.72
2022-11-26T04:56:29.344Z,101428.88
2022-11-26T04:59:31.879Z,101431.53
2022-11-26T05:02:34.365Z,101425.59
2022-11-26T05:05:37.370Z,101426.38
2022-11-26T05:08:39.749Z,101432.41
2022-11-26T05:11:42.203Z,101435.91
2022-11-26T05:14:44.594Z,101444.31
2022-11-26T05:17:47.034Z,101444.34
2022-11-26T05:20:50.012Z,101443.56
2022-11-26T05:23:52.385Z,101450.41
2022-11-26T05:26:57.172Z,101449.50
2022-11-26T05:30:00.172Z,101466.59
2022-11-26T05:33:02.612Z,101475.09
2022-11-26T05:36:05.273Z,101478.47
2022-11-26T05:39:07.864Z,101463.97
2022-11-26T05:42:10.477Z,101470.75
2022-11-26T05:45:12.990Z,101485.22
2022-11-26T05:48:15.526Z,101482.69
2022-11-26T05:51:18.084Z,101482.66
2022-11-26T05:54:20.600Z,101495.31
2022-11-26T05:57:23.134Z,101498.88
2022-11-26T06:00:25.860Z,101496.09
2022-11-26T06:03:28.417Z,101498.59
2022-11-26T06:06:31.109Z,101497.56
2022-11-26T06:09:33.666Z,101490.06
2022-11-26T06:12:36.375Z,101500.38
2022-11-26T06:15:38.831Z,101508.03
2022-11-26T06:18:41.399Z,101514.94
2022-11-26T06:21:43.823Z,101514.13
2022-11-26T06:24:46.212Z,101517.38
2022-11-26T06:27:48.974Z,101514.81
2022-11-26T06:30:51.549Z,101517.28
2022-11-26T06:33:55.459Z,101516.41
2022-11-26T06:36:57.869Z,101519.13
2022-11-26T06:40:00.825Z,101524.97
2022-11-26T06:43:03.506Z,101527.47
2022-11-26T06:46:08.652Z,101525.66
2022-11-26T06:49:11.187Z,101528.28
2022-11-26T06:52:14.057Z,101533.13
2022-11-26T06:55:16.613Z,101528.75
2022-11-26T06:58:19.123Z,101536.41
2022-11-26T07:01:25.091Z,101533.09
2022-11-26T07:04:27.744Z,101541.06
2022-11-26T07:07:30.316Z,101545.22
2022-11-26T07:10:33.118Z,101541.44
2022-11-26T07:13:35.583Z,101538.84
2022-11-26T07:16:38.121Z,101541.78
2022-11-26T07:19:40.663Z,101541.66
2022-11-26T07:22:43.414Z,101545.94
2022-11-26T07:25:45.880Z,101544.94
2022-11-26T07:28:48.937Z,101548.50
2022-11-26T07:31:52.000Z,101557.59
2022-11-26T07:34:54.488Z,101558.22
2022-11-26T07:37:56.897Z,101568.19
2022-11-26T07:41:10.518Z,101567.09
2022-11-26T07:44:14.921Z,101573.06
2022-11-26T07:47:17.489Z,101572.28
2022-11-26T07:50:20.101Z,101583.81
2022-11-26T07:53:22.557Z,101582.81
2022-11-26T07:56:25.502Z,101581.19
2022-11-26T07:59:28.171Z,101572.91
2022-11-26T08:02:30.684Z,101581.31
2022-11-26T08:05:33.677Z,101585.56
2022-11-26T08:08:36.758Z,101583.75
2022-11-26T08:11:39.425Z,101591.16
2022-11-26T08:14:41.903Z,101591.28
2022-11-26T08:17:44.382Z,101593.72
2022-11-26T08:20:55.506Z,101592.69
2022-11-26T08:23:58.266Z,101598.66
2022-11-26T08:27:00.675Z,101594.41
2022-11-26T08:30:03.921Z,101600.09
2022-11-26T08:33:06.678Z,101602.16
2022-11-26T08:36:10.032Z,101600.44
2022-11-26T08:39:17.692Z,101604.66
2022-11-26T08:42:20.304Z,101602.94
2022-11-26T08:45:22.873Z,101612.31
2022-11-26T08:48:30.601Z,101606.59
2022-11-26T08:51:34.541Z,101618.31
2022-11-26T08:54:44.631Z,101626.16
2022-11-26T08:57:47.786Z,101618.22
2022-11-26T09:00:51.346Z,101620.09
2022-11-26T09:03:56.329Z,101631.56
2022-11-26T09:06:58.758Z,101628.91
2022-11-26T09:10:01.178Z,101629.44
2022-11-26T09:13:03.696Z,101627.75
2022-11-26T09:16:06.356Z,101631.94
2022-11-26T09:19:10.852Z,101635.88
2022-11-26T09:22:13.478Z,101634.59
2022-11-26T09:25:16.144Z,101631.84
2022-11-26T09:28:18.510Z,101636.00
2022-11-26T09:31:21.023Z,101639.78
2022-11-26T09:34:23.732Z,101633.31
2022-11-26T09:37:26.352Z,101635.25
2022-11-26T09:40:55.901Z,101641.03
2022-11-26T09:44:20.555Z,101643.19
2022-11-26T09:47:26.423Z,101637.63
2022-11-26T09:50:32.698Z,101646.19
2022-11-26T09:53:40.507Z,101645.28
2022-11-26T09:56:43.012Z,101653.69
2022-11-26T09:59:47.578Z,101651.97
2022-11-26T10:02:52.842Z,101655.31
2022-11-26T10:06:01.506Z,101649.94
2022-11-26T10:09:23.515Z,101662.47
2022-11-26T10:13:16.727Z,101656.34
2022-11-26T10:16:27.736Z,101656.09
2022-11-26T10:19:39.050Z,101654.53
2022-11-26T10:22:56.883Z,101652.97
2022-11-26T10:26:14.817Z,101649.53
2022-11-26T10:29:33.540Z,101656.19
2022-11-26T10:32:41.696Z,101658.81
2022-11-26T10:35:45.534Z,101653.75
2022-11-26T10:38:48.518Z,101662.38
2022-11-26T10:41:51.972Z,101656.75
2022-11-26T10:44:54.609Z,101660.44
2022-11-26T10:48:20.059Z,101657.53
2022-11-26T10:51:33.201Z,101652.84
2022-11-26T10:54:38.195Z,101657.72
2022-11-26T10:57:46.986Z,101656.09
2022-11-26T11:00:49.629Z,101659.19
2022-11-26T11:04:10.297Z,101655.03
2022-11-26T11:07:35.642Z,101656.50
2022-11-26T11:10:53.838Z,101653.25
2022-11-26T11:13:57.166Z,101658.06
2022-11-26T11:16:59.736Z,101661.56
2022-11-26T11:20:32.689Z,101663.22
2022-11-26T11:24:07.017Z,101667.44
2022-11-26T11:27:00.719Z,101666.53
2022-11-26T11:30:03.563Z,101661.31
2022-11-26T11:33:27.585Z,101659.63
2022-11-26T11:36:29.958Z,101670.34
2022-11-26T11:39:35.331Z,101664.59
2022-11-26T11:42:40.513Z,101663.56
2022-11-26T11:45:53.125Z,101657.56
2022-11-26T11:49:14.798Z,101662.69
2022-11-26T11:52:29.651Z,101660.06
2022-11-26T11:55:32.043Z,101664.03
2022-11-26T11:59:12.900Z,101657.56
2022-11-26T12:02:18.342Z,101666.06
2022-11-26T12:06:05.905Z,101657.59
2022-11-26T12:09:30.275Z,101659.81
2022-11-26T12:12:38.125Z,101662.72
2022-11-26T12:15:51.627Z,101659.16
2022-11-26T12:19:00.720Z,101661.38
2022-11-26T12:22:53.883Z,101657.03
2022-11-26T12:26:08.185Z,101652.34
2022-11-26T12:29:14.216Z,101653.31
2022-11-26T12:32:24.846Z,101657.63
2022-11-26T12:35:35.553Z,101661.28
2022-11-26T12:38:45.598Z,101647.88
2022-11-26T12:42:00.032Z,101646.53
2022-11-26T12:45:19.508Z,101639.44
2022-11-26T12:48:34.305Z,101634.25
2022-11-26T12:51:36.683Z,101639.25
2022-11-26T12:55:09.523Z,101638.31
2022-11-26T12:58:21.806Z,101628.75
2022-11-26T13:01:25.714Z,101623.66
2022-11-26T13:04:37.685Z,101625.38
2022-11-26T13:08:08.199Z,101636.53
2022-11-26T13:11:31.128Z,101627.91
2022-11-26T13:15:14.088Z,101632.25
2022-11-26T13:18:29.759Z,101634.94
2022-11-26T13:21:43.893Z,101630.78
2022-11-26T13:25:09.826Z,101628.34
2022-11-26T13:28:27.816Z,101632.72
2022-11-26T13:31:33.221Z,101633.72
2022-11-26T13:34:54.281Z,101644.09
2022-11-26T13:38:11.922Z,101647.88
2022-11-26T13:41:27.704Z,101656.34
2022-11-26T13:44:55.902Z,101660.78
2022-11-26T13:48:09.142Z,101661.78
2022-11-26T13:51:29.199Z,101659.38
2022-11-26T13:55:01.048Z,101665.28
2022-11-26T13:58:12.959Z,101682.25
2022-11-26T14:01:45.804Z,101689.19
2022-11-26T14:04:48.349Z,101686.56
2022-11-26T14:07:50.879Z,101688.34
2022-11-26T14:10:53.449Z,101691.66
2022-11-26T14:14:23.663Z,101692.59
2022-11-26T14:17:32.437Z,101684.91
2022-11-26T14:21:02.350Z,101698.47
2022-11-26T14:24:04.996Z,101690.69
2022-11-26T14:27:07.499Z,101694.19
2022-11-26T14:30:28.063Z,101696.81
2022-11-26T14:33:31.944Z,101688.00
2022-11-26T14:36:34.446Z,101695.63
2022-11-26T14:39:36.864Z,101687.38
2022-11-26T14:42:40.128Z,101696.06
2022-11-26T14:46:01.978Z,101704.50
2022-11-26T14:49:20.092Z,101706.13
2022-11-26T14:52:26.615Z,101707.88
2022-11-26T14:55:31.524Z,101698.34
2022-11-26T14:58:43.497Z,101697.56
2022-11-26T15:01:46.573Z,101694.97
2022-11-26T15:05:02.028Z,101696.75
2022-11-26T15:08:06.945Z,101699.34
2022-11-26T15:11:10.737Z,101699.25
2022-11-26T15:14:34.281Z,101700.13
2022-11-26T15:17:43.043Z,101702.66
2022-11-26T15:20:51.861Z,101710.44
2022-11-26T15:23:57.584Z,101710.47
2022-11-26T15:27:00.071Z,101712.31
2022-11-26T15:30:05.419Z,101719.16
2022-11-26T15:33:08.481Z,101725.97
2022-11-26T15:36:17.148Z,101722.53
2022-11-26T15:39:32.185Z,101725.94
2022-11-26T15:42:34.756Z,101733.50
2022-11-26T15:45:41.233Z,101729.38
2022-11-26T15:48:52.597Z,101726.78
2022-11-26T15:52:12.822Z,101731.91
2022-11-26T15:55:28.444Z,101733.56
2022-11-26T15:58:35.394Z,101731.09
2022-11-26T16:01:38.850Z,101733.69
2022-11-26T16:04:52.860Z,101735.31
2022-11-26T16:08:01.012Z,101728.66
2022-11-26T16:11:03.366Z,101733.75
2022-11-26T16:14:28.851Z,101733.00
2022-11-26T16:17:31.580Z,101742.44
2022-11-26T16:20:34.212Z,101725.28
2022-11-26T16:23:37.263Z,101734.69
2022-11-26T16:27:01.098Z,101739.00
2022-11-26T16:30:14.812Z,101735.63
2022-11-26T16:33:17.508Z,101730.50
2022-11-26T16:36:24.042Z,101733.88
2022-11-26T16:39:30.143Z,101749.22
2022-11-26T16:42:33.466Z,101741.59
2022-11-26T16:45:36.236Z,101738.16
2022-11-26T16:48:39.986Z,101733.78
2022-11-26T16:51:42.423Z,101736.44
2022-11-26T16:54:45.146Z,101741.53
2022-11-26T16:57:51.427Z,101733.88
2022-11-26T17:00:55.606Z,101729.59
2022-11-26T17:03:58.113Z,101735.56
2022-11-26T17:07:00.570Z,101739.78
2022-11-26T17:10:04.361Z,101734.63
2022-11-26T17:13:08.467Z,101724.41
2022-11-26T17:16:17.390Z,101735.47
2022-11-26T17:19:20.310Z,101742.34
2022-11-26T17:22:24.197Z,101745.78
2022-11-26T17:25:26.648Z,101735.56
2022-11-26T17:28:29.505Z,101746.56
2022-11-26T17:31:32.151Z,101744.94
2022-11-26T17:34:34.568Z,101751.84
2022-11-26T17:37:37.847Z,101753.59
2022-11-26T17:40:42.835Z,101757.81
2022-11-26T17:43:45.568Z,101755.22
2022-11-26T17:47:15.227Z,101757.84
2022-11-26T17:50:23.577Z,101756.97
2022-11-26T17:53:26.039Z,101750.09
2022-11-26T17:56:28.713Z,101751.78
2022-11-26T17:59:31.457Z,101746.69
2022-11-26T18:02:34.203Z,101756.91
2022-11-26T18:05:41.599Z,101747.53
2022-11-26T18:08:45.509Z,101751.81
2022-11-26T18:11:53.447Z,101763.81
2022-11-26T18:14:58.002Z,101753.56
2022-11-26T18:18:01.085Z,101751.84
2022-11-26T18:21:03.852Z,101759.56
2022-11-26T18:24:07.329Z,101753.59
2022-11-26T18:27:09.813Z,101768.09
2022-11-26T18:30:12.710Z,101772.38
2022-11-26T18:33:16.296Z,101768.09
2022-11-26T18:36:19.136Z,101762.94
2022-11-26T18:39:22.141Z,101767.22
2022-11-26T18:42:40.776Z,101757.00
2022-11-26T18:45:43.817Z,101761.44
2022-11-26T18:48:49.864Z,101770.75
2022-11-26T18:51:52.309Z,101777.63
2022-11-26T18:54:54.913Z,101776.69
2022-11-26T18:57:57.639Z,101782.75
2022-11-26T19:01:01.508Z,101784.47
2022-11-26T19:04:05.476Z,101786.94
2022-11-26T19:07:09.408Z,101789.53
2022-11-26T19:10:12.596Z,101789.50
2022-11-26T19:13:15.506Z,101790.44
2022-11-26T19:16:20.205Z,101787.91
2022-11-26T19:19:22.791Z,101805.00
2022-11-26T19:22:25.571Z,101804.19
2022-11-26T19:25:30.266Z,101810.97
2022-11-26T19:28:33.235Z,101813.50
2022-11-26T19:31:39.116Z,101815.19
2022-11-26T19:34:42.889Z,101817.84
2022-11-26T19:37:45.864Z,101823.81
2022-11-26T19:40:48.483Z,101827.13
2022-11-26T19:43:50.935Z,101831.44
2022-11-26T19:46:56.161Z,101827.25
2022-11-26T19:49:58.808Z,101830.69
2022-11-26T19:53:03.111Z,101831.53
2022-11-26T19:56:09.302Z,101824.66
2022-11-26T19:59:12.696Z,101823.00
2022-11-26T20:02:15.640Z,101822.13
2022-11-26T20:05:19.414Z,101821.34
2022-11-26T20:08:22.263Z,101820.44
2022-11-26T20:11:25.419Z,101830.75
2022-11-26T20:14:28.036Z,101831.66
2022-11-26T20:17:30.482Z,101833.28
2022-11-26T20:20:33.512Z,101831.59
2022-11-26T20:23:37.721Z,101846.00
2022-11-26T20:26:42.400Z,101840.09
2022-11-26T20:29:44.964Z,101835.81
2022-11-26T20:32:49.155Z,101832.34
2022-11-26T20:35:51.931Z,101833.25
2022-11-26T20:39:04.523Z,101834.06
2022-11-26T20:42:07.590Z,101830.75
2022-11-26T20:45:10.330Z,101829.91
2022-11-26T20:48:13.101Z,101835.00
2022-11-26T20:51:18.733Z,101832.41
2022-11-26T20:54:21.494Z,101835.84
2022-11-26T20:57:25.321Z,101835.88
2022-11-26T21:00:28.037Z,101830.78
2022-11-26T21:03:31.513Z,101824.75
2022-11-26T21:06:35.438Z,101828.97
2022-11-26T21:09:38.326Z,101832.41
2022-11-26T21:12:41.588Z,101833.22
2022-11-26T21:15:47.430Z,101832.38
2022-11-26T21:18:53.173Z,101835.84
2022-11-26T21:21:55.957Z,101832.44
2022-11-26T21:24:58.934Z,101832.47
2022-11-26T21:28:01.297Z,101831.63
2022-11-26T21:31:08.411Z,101835.00
2022-11-26T21:34:15.394Z,101835.03
2022-11-26T21:37:18.880Z,101839.34
2022-11-26T21:40:21.643Z,101843.59
2022-11-26T21:43:24.250Z,101841.00
2022-11-26T21:46:27.356Z,101837.66
2022-11-26T21:49:31.335Z,101836.78
2022-11-26T21:52:33.989Z,101841.91
2022-11-26T21:55:36.636Z,101842.84
2022-11-26T21:58:39.722Z,101842.84
2022-11-26T22:01:42.987Z,101837.69
2022-11-26T22:04:45.735Z,101830.84
2022-11-26T22:07:48.333Z,101841.09
2022-11-26T22:10:51.974Z,101849.63
2022-11-26T22:13:54.780Z,101841.91
2022-11-26T22:16:57.439Z,101843.66
2022-11-26T22:19:59.823Z,101848.75
2022-11-26T22:23:02.159Z,101846.16
2022-11-26T22:26:04.948Z,101843.59
2022-11-26T22:29:07.726Z,101846.09
2022-11-26T22:32:10.141Z,101846.19
2022-11-26T22:35:13.527Z,101844.47
2022-11-26T22:38:15.965Z,101837.66
2022-11-26T22:41:18.871Z,101845.41
2022-11-26T22:44:21.353Z,101839.41
2022-11-26T22:47:23.721Z,101844.47
2022-11-26T22:50:26.170Z,101841.03
2022-11-26T22:53:29.043Z,101840.22
2022-11-26T22:56:31.948Z,101830.81
2022-11-26T22:59:34.464Z,101834.22
2022-11-26T23:02:37.419Z,101829.91
2022-11-26T23:05:40.092Z,101841.91
2022-11-26T23:08:43.860Z,101835.88
2022-11-26T23:11:48.996Z,101840.19
2022-11-26T23:14:51.387Z,101842.75
2022-11-26T23:17:53.735Z,101840.22
2022-11-26T23:21:08.961Z,101841.88
2022-11-26T23:24:11.524Z,101850.47
2022-11-26T23:27:13.886Z,101844.47
2022-11-26T23:30:18.952Z,101846.22
2022-11-26T23:33:21.400Z,101840.22
2022-11-26T23:36:24.675Z,101843.66
2022-11-26T23:39:27.093Z,101841.88
2022-11-26T23:42:29.671Z,101841.91
2022-11-26T23:45:32.057Z,101847.88
2022-11-26T23:48:34.587Z,101845.28
2022-11-26T23:51:37.273Z,101849.56
2022-11-26T23:54:40.002Z,101841.00
2022-11-26T23:57:42.392Z,101851.28
